Time;durP1;ratioP1;P1;durP2;ratioP2;P2;SDS_P1;SDS_P2;PMS_P1;PMS_P2;Temp;Humidity;BMP_temperature;BMP_pressure;BME280_temperature;BME280_humidity;BME280_pressure;Samples;Min_cycle;Max_cycle;Signal;HPM_P1;HPM_P2
2022/01/27 00:00:46;;;;;;;4.57;2.90;;;23.40;32.40;;;;;;5026205;28;20025;-49
2022/01/27 00:05:40;;;;;;;4.07;2.80;;;23.40;32.40;;;;;;5026203;28;20030;-50
2022/01/27 00:12:59;;;;;;;4.90;3.25;;;23.30;32.40;;;;;;5026400;28;20417;-48
2022/01/27 00:15:31;;;;;;;4.68;3.00;;;23.30;32.50;;;;;;5027119;28;20088;-49
2022/01/27 00:18:07;;;;;;;4.40;2.95;;;23.30;32.40;;;;;;5026911;28;20109;-48
2022/01/27 00:20:33;;;;;;;4.22;2.95;;;23.30;32.40;;;;;;5026272;28;20036;-49
2022/01/27 00:22:59;;;;;;;4.85;3.10;;;23.30;32.40;;;;;;5026727;28;20108;-51
2022/01/27 00:25:24;;;;;;;4.57;2.90;;;23.30;32.40;;;;;;5026641;28;20034;-48
2022/01/27 00:27:50;;;;;;;4.93;3.55;;;23.30;32.40;;;;;;5025358;28;20611;-50
2022/01/27 00:30:16;;;;;;;4.93;2.80;;;23.30;32.40;;;;;;5026590;28;20711;-49
2022/01/27 00:32:42;;;;;;;4.55;3.22;;;23.30;32.40;;;;;;5025969;28;20026;-50
2022/01/27 00:35:08;;;;;;;4.65;3.00;;;23.20;32.40;;;;;;5026636;28;20104;-49
2022/01/27 00:37:34;;;;;;;5.05;3.55;;;23.20;32.30;;;;;;5026684;28;20723;-49
2022/01/27 00:40:00;;;;;;;5.00;3.20;;;23.20;32.30;;;;;;5026000;28;20203;-50
2022/01/27 00:42:27;;;;;;;4.07;2.92;;;23.20;32.40;;;;;;5023882;28;20643;-53
2022/01/27 00:44:54;;;;;;;4.00;2.58;;;23.20;32.30;;;;;;5021217;28;20022;-48
2022/01/27 00:47:20;;;;;;;4.70;3.28;;;23.20;32.40;;;;;;5023165;28;20071;-49
2022/01/27 00:49:45;;;;;;;5.75;3.65;;;23.20;32.40;;;;;;5021841;28;20065;-50
2022/01/27 00:52:16;;;;;;;4.65;3.00;;;23.20;32.40;;;;;;5024113;28;20059;-48
2022/01/27 00:54:43;;;;;;;5.93;3.38;;;23.10;32.40;;;;;;5023623;28;20098;-48
2022/01/27 00:57:18;;;;;;;5.05;3.00;;;23.10;32.40;;;;;;5025176;28;20029;-49
2022/01/27 00:59:59;;;;;;;5.20;3.17;;;23.10;32.40;;;;;;5024130;28;20017;-49
2022/01/27 01:02:47;;;;;;;4.90;3.17;;;23.10;32.40;;;;;;5024669;28;20053;-49
2022/01/27 01:08:09;;;;;;;5.05;3.10;;;23.10;32.50;;;;;;5025738;28;20084;-50
2022/01/27 01:16:07;;;;;;;5.10;3.72;;;23.00;32.40;;;;;;5022444;28;20094;-48
2022/01/27 01:18:48;;;;;;;4.88;3.20;;;23.00;32.40;;;;;;5024816;28;20045;-49
2022/01/27 01:29:51;;;;;;;5.22;3.50;;;23.00;32.40;;;;;;5024827;28;20545;-50
2022/01/27 01:32:39;;;;;;;5.03;3.33;;;22.90;32.40;;;;;;5024672;28;20614;-49
2022/01/27 01:35:06;;;;;;;4.25;2.80;;;22.90;32.40;;;;;;5024831;28;20073;-50
2022/01/27 01:37:38;;;;;;;4.85;3.40;;;22.90;32.40;;;;;;5024155;28;20107;-49
2022/01/27 01:40:13;;;;;;;4.90;3.53;;;22.90;32.40;;;;;;5024575;28;20048;-48
2022/01/27 01:42:39;;;;;;;5.18;3.55;;;22.90;32.40;;;;;;5023897;28;20037;-49
2022/01/27 01:45:09;;;;;;;4.82;3.17;;;22.80;32.50;;;;;;5024876;28;20084;-48
2022/01/27 01:47:35;;;;;;;5.32;3.72;;;22.90;32.50;;;;;;5025246;28;20036;-49
2022/01/27 01:50:02;;;;;;;4.75;2.90;;;22.80;32.40;;;;;;5025248;28;20052;-50
2022/01/27 01:52:28;;;;;;;5.60;3.65;;;22.80;32.40;;;;;;5024108;28;20041;-48
2022/01/27 01:54:55;;;;;;;5.18;3.25;;;22.80;32.40;;;;;;5024991;28;20014;-48
2022/01/27 01:57:21;;;;;;;4.30;3.08;;;22.80;32.40;;;;;;5024874;28;20025;-50
2022/01/27 01:59:47;;;;;;;5.10;3.67;;;22.80;33.00;;;;;;5022465;28;20021;-50
2022/01/27 02:02:13;;;;;;;4.97;3.22;;;22.80;32.40;;;;;;5022245;28;20044;-50
2022/01/27 02:04:40;;;;;;;5.25;3.50;;;22.80;32.40;;;;;;5023776;28;20098;-50
2022/01/27 02:07:15;;;;;;;5.22;3.40;;;22.80;32.40;;;;;;5023489;28;20057;-49
2022/01/27 02:10:05;;;;;;;5.18;3.40;;;22.80;32.40;;;;;;5023596;28;20448;-49
2022/01/27 02:18:01;;;;;;;5.00;3.40;;;22.70;32.50;;;;;;5024588;28;20026;-49
2022/01/27 02:20:32;;;;;;;5.68;3.50;;;22.70;32.40;;;;;;5024874;28;20091;-49
2022/01/27 02:22:58;;;;;;;4.90;3.17;;;22.70;32.40;;;;;;5023874;28;20041;-48
2022/01/27 02:25:24;;;;;;;4.60;3.25;;;22.70;32.50;;;;;;5024281;28;20460;-49
2022/01/27 02:27:54;;;;;;;4.63;3.33;;;22.70;32.50;;;;;;5024507;28;20043;-49
2022/01/27 02:30:20;;;;;;;5.47;3.88;;;22.70;32.50;;;;;;5023999;28;20278;-48
2022/01/27 02:32:46;;;;;;;5.20;3.22;;;22.70;32.50;;;;;;5021868;28;20568;-49
2022/01/27 02:35:12;;;;;;;5.57;3.67;;;22.60;32.50;;;;;;5022932;28;20680;-49
2022/01/27 02:37:37;;;;;;;5.38;3.55;;;22.60;32.50;;;;;;5022208;28;20029;-49
2022/01/27 02:40:04;;;;;;;4.22;3.03;;;22.60;32.50;;;;;;5024254;28;20685;-49
2022/01/27 02:42:30;;;;;;;4.90;3.50;;;22.60;32.50;;;;;;5024076;28;20041;-49
2022/01/27 02:45:26;;;;;;;4.40;2.83;;;22.60;32.50;;;;;;5024161;28;20083;-51
2022/01/27 02:47:51;;;;;;;4.50;3.28;;;22.60;32.40;;;;;;5023710;28;20026;-49
2022/01/27 02:50:18;;;;;;;5.13;3.55;;;22.60;32.40;;;;;;5023791;28;20033;-48
2022/01/27 02:52:45;;;;;;;4.90;3.30;;;22.60;32.40;;;;;;5023782;28;20033;-48
2022/01/27 02:55:11;;;;;;;5.65;3.95;;;22.60;32.40;;;;;;5023082;28;20237;-49
2022/01/27 02:57:38;;;;;;;5.25;3.80;;;22.60;32.40;;;;;;5023157;28;20528;-50
2022/01/27 03:00:06;;;;;;;5.20;3.25;;;22.60;32.40;;;;;;5022961;28;20026;-50
2022/01/27 03:02:33;;;;;;;5.03;3.22;;;22.60;32.40;;;;;;5022927;28;20416;-50
2022/01/27 03:04:58;;;;;;;5.20;3.50;;;22.60;32.40;;;;;;5023876;28;20113;-49
2022/01/27 03:07:24;;;;;;;5.68;3.83;;;22.60;32.40;;;;;;5023936;28;20136;-48
2022/01/27 03:09:50;;;;;;;5.45;3.97;;;22.50;32.40;;;;;;5024205;28;20025;-48
2022/01/27 03:12:17;;;;;;;5.40;4.00;;;22.50;32.50;;;;;;5023482;28;20055;-50
2022/01/27 03:14:43;;;;;;;5.40;3.42;;;22.50;32.40;;;;;;5023623;28;20025;-49
2022/01/27 03:17:11;;;;;;;4.60;3.08;;;22.50;33.10;;;;;;5023634;28;20053;-50
2022/01/27 03:19:37;;;;;;;4.70;3.35;;;22.50;32.50;;;;;;5038447;28;20702;-50
2022/01/27 03:22:04;;;;;;;4.97;3.33;;;22.50;32.60;;;;;;5022726;28;20029;-49
2022/01/27 03:24:31;;;;;;;4.57;3.42;;;22.50;32.50;;;;;;5022809;28;20030;-49
2022/01/27 03:26:57;;;;;;;5.55;3.67;;;22.50;32.50;;;;;;5022281;28;20109;-50
2022/01/27 03:29:24;;;;;;;5.20;3.40;;;22.50;32.50;;;;;;5023654;28;20029;-50
2022/01/27 03:31:50;;;;;;;5.18;3.20;;;22.50;32.50;;;;;;5022493;28;20768;-48
2022/01/27 03:34:16;;;;;;;4.97;3.47;;;22.50;32.50;;;;;;5021823;28;20112;-49
2022/01/27 03:36:42;;;;;;;5.10;3.47;;;22.50;32.50;;;;;;5021695;28;20022;-49
2022/01/27 03:39:09;;;;;;;4.97;3.40;;;22.50;32.50;;;;;;5023567;28;20025;-49
2022/01/27 03:41:37;;;;;;;4.65;3.13;;;22.50;32.50;;;;;;5022337;28;20116;-50
2022/01/27 03:44:05;;;;;;;4.80;3.13;;;22.50;32.50;;;;;;5037491;28;20029;-49
2022/01/27 03:46:31;;;;;;;5.13;3.65;;;22.50;32.50;;;;;;5025927;28;20508;-49
2022/01/27 03:48:57;;;;;;;5.13;3.72;;;22.40;32.40;;;;;;5025984;28;20042;-48
2022/01/27 03:51:23;;;;;;;5.78;3.65;;;22.40;32.40;;;;;;5026682;28;20099;-50
2022/01/27 03:53:49;;;;;;;5.85;3.83;;;22.40;32.40;;;;;;5026755;28;20108;-50
2022/01/27 03:56:14;;;;;;;4.70;3.28;;;22.40;32.50;;;;;;5027243;28;20113;-49
2022/01/27 03:58:40;;;;;;;5.00;3.88;;;22.40;32.40;;;;;;5026783;28;20105;-49
2022/01/27 04:01:06;;;;;;;5.22;3.75;;;22.40;32.40;;;;;;5025270;28;20392;-49
2022/01/27 04:03:36;;;;;;;6.50;3.85;;;22.40;32.50;;;;;;5026091;28;20136;-50
2022/01/27 04:06:09;;;;;;;6.13;3.95;;;22.40;32.50;;;;;;5026329;28;20747;-49
2022/01/27 04:08:37;;;;;;;5.50;3.72;;;22.40;32.50;;;;;;5026193;28;20493;-50
2022/01/27 04:11:08;;;;;;;5.03;3.88;;;22.30;32.50;;;;;;5025800;28;20121;-49
2022/01/27 04:13:35;;;;;;;4.70;3.50;;;22.30;32.40;;;;;;5025646;28;20034;-49
2022/01/27 04:16:01;;;;;;;4.95;3.35;;;22.30;32.40;;;;;;5026820;28;20029;-48
2022/01/27 04:18:27;;;;;;;4.60;3.08;;;22.30;32.40;;;;;;5025047;28;20554;-49
2022/01/27 04:20:53;;;;;;;4.95;3.33;;;22.30;32.40;;;;;;5026132;28;20025;-51
2022/01/27 04:23:19;;;;;;;5.82;3.72;;;22.30;32.40;;;;;;5026759;28;20033;-50
2022/01/27 04:25:46;;;;;;;4.85;3.60;;;22.30;32.40;;;;;;5026327;28;20121;-49
2022/01/27 04:28:15;;;;;;;4.95;3.45;;;22.30;32.60;;;;;;5026725;28;20104;-49
2022/01/27 04:30:41;;;;;;;5.88;3.90;;;22.30;32.40;;;;;;5024723;28;20460;-50
2022/01/27 04:33:07;;;;;;;4.93;3.83;;;22.30;32.40;;;;;;5025349;28;20029;-50
2022/01/27 04:35:38;;;;;;;5.05;3.60;;;22.30;32.40;;;;;;5024308;28;20071;-49
2022/01/27 04:48:47;;;;;;;5.25;3.70;;;22.20;32.40;;;;;;5025179;28;20818;-49
2022/01/27 04:51:16;;;;;;;4.75;3.47;;;22.20;32.40;;;;;;5025363;28;20041;-49
2022/01/27 04:53:55;;;;;;;5.65;3.72;;;22.20;32.40;;;;;;5025040;28;20025;-50
2022/01/27 04:56:23;;;;;;;6.03;3.67;;;22.20;32.50;;;;;;5024329;28;20029;-50
2022/01/27 04:58:53;;;;;;;5.22;3.67;;;22.20;32.40;;;;;;5025034;28;20418;-50
2022/01/27 05:01:23;;;;;;;4.85;3.28;;;22.20;32.50;;;;;;5020547;28;20614;-48
2022/01/27 05:03:55;;;;;;;4.78;3.35;;;22.20;32.50;;;;;;5024106;28;20033;-51
2022/01/27 05:06:21;;;;;;;4.63;3.42;;;22.20;32.50;;;;;;5021037;28;20029;-49
2022/01/27 05:08:46;;;;;;;4.50;3.28;;;22.20;32.50;;;;;;5024266;28;20028;-49
2022/01/27 05:11:31;;;;;;;4.68;3.40;;;22.20;32.50;;;;;;5024130;28;20026;-50
2022/01/27 05:14:21;;;;;;;5.60;3.70;;;22.20;32.70;;;;;;5022657;28;20036;-49
2022/01/27 05:16:43;;;;;;;6.20;4.00;;;22.20;33.10;;;;;;5024352;28;20030;-50
2022/01/27 05:19:09;;;;;;;6.18;4.40;;;22.20;33.80;;;;;;5024579;28;20036;-49
2022/01/27 05:21:35;;;;;;;6.32;4.63;;;22.20;34.00;;;;;;5020678;28;20776;-49
2022/01/27 05:24:02;;;;;;;52.42;18.50;;;22.20;34.20;;;;;;5023896;28;20088;-49
2022/01/27 05:26:28;;;;;;;45.75;16.85;;;22.20;34.40;;;;;;5024029;28;20036;-48
2022/01/27 05:28:54;;;;;;;42.45;16.45;;;22.20;34.20;;;;;;5004002;28;20014;-49
2022/01/27 05:31:20;;;;;;;37.53;15.70;;;22.20;34.40;;;;;;5021976;28;20061;-49
2022/01/27 05:33:45;;;;;;;35.85;15.82;;;22.20;34.30;;;;;;5006266;28;20052;-49
2022/01/27 05:36:11;;;;;;;39.63;14.88;;;22.30;34.30;;;;;;5023074;28;20086;-50
2022/01/27 05:38:37;;;;;;;37.47;14.93;;;22.30;34.30;;;;;;5025351;28;20040;-49
2022/01/27 05:41:04;;;;;;;33.17;15.70;;;22.30;34.30;;;;;;5025060;28;20040;-50
2022/01/27 05:43:30;;;;;;;31.50;12.98;;;22.30;34.50;;;;;;5025308;28;20076;-50
2022/01/27 05:45:56;;;;;;;29.38;13.63;;;22.40;34.50;;;;;;5023943;28;20493;-49
2022/01/27 05:48:22;;;;;;;23.77;11.73;;;22.40;34.40;;;;;;5025207;28;20033;-49
2022/01/27 05:50:48;;;;;;;25.55;11.52;;;22.40;34.30;;;;;;5024974;28;20034;-49
2022/01/27 05:53:14;;;;;;;25.27;10.80;;;22.50;34.40;;;;;;5025155;28;20520;-49
2022/01/27 05:55:40;;;;;;;25.73;10.63;;;22.50;34.30;;;;;;5025056;28;20033;-50
2022/01/27 05:58:05;;;;;;;24.52;10.20;;;22.60;34.30;;;;;;5025242;28;20032;-48
2022/01/27 06:00:32;;;;;;;19.42;11.20;;;22.70;34.20;;;;;;5023737;28;20044;-49
2022/01/27 06:02:57;;;;;;;20.25;10.02;;;22.80;34.10;;;;;;5023405;28;20108;-50
2022/01/27 06:05:23;;;;;;;18.95;10.10;;;22.80;34.00;;;;;;5024052;28;20496;-48
2022/01/27 06:07:49;;;;;;;19.83;9.43;;;22.90;34.00;;;;;;5024950;28;20052;-47
2022/01/27 06:10:14;;;;;;;17.48;9.00;;;23.00;34.00;;;;;;5024608;28;20268;-51
2022/01/27 06:12:45;;;;;;;17.38;7.57;;;23.00;33.80;;;;;;5024089;28;20025;-48
2022/01/27 06:15:11;;;;;;;15.70;8.10;;;23.10;33.90;;;;;;5022492;28;20018;-49
2022/01/27 06:17:36;;;;;;;15.27;7.15;;;23.20;33.80;;;;;;5023507;28;20032;-50
2022/01/27 06:20:03;;;;;;;15.48;7.07;;;23.30;33.80;;;;;;5022729;28;20124;-47
2022/01/27 06:22:28;;;;;;;13.07;6.95;;;23.30;33.70;;;;;;5020103;28;20052;-49
2022/01/27 06:24:54;;;;;;;12.40;6.30;;;23.40;33.40;;;;;;5023772;28;20034;-50
2022/01/27 06:27:20;;;;;;;10.30;6.25;;;23.50;33.40;;;;;;5023525;28;20666;-50
2022/01/27 06:29:46;;;;;;;9.43;5.47;;;23.50;33.30;;;;;;5023385;28;20028;-50
2022/01/27 06:32:11;;;;;;;13.07;6.50;;;23.60;33.10;;;;;;5023757;28;20112;-49
2022/01/27 06:34:37;;;;;;;13.07;5.82;;;23.60;33.00;;;;;;5024606;28;20022;-50
2022/01/27 06:37:03;;;;;;;11.35;5.97;;;23.70;33.00;;;;;;5023367;28;20044;-48
2022/01/27 06:39:29;;;;;;;9.25;5.55;;;23.80;33.00;;;;;;5024087;28;20459;-50
2022/01/27 06:41:55;;;;;;;12.00;5.75;;;23.80;32.80;;;;;;5022931;28;20108;-49
2022/01/27 06:44:20;;;;;;;11.25;5.60;;;23.90;32.80;;;;;;5022365;28;20036;-49
2022/01/27 06:46:46;;;;;;;10.30;5.63;;;23.90;32.70;;;;;;5024007;28;20034;-49
2022/01/27 06:49:16;;;;;;;9.45;5.05;;;24.00;32.60;;;;;;5024324;28;20029;-48
2022/01/27 06:51:43;;;;;;;6.95;4.47;;;24.00;32.50;;;;;;5023614;28;20040;-49
2022/01/27 06:54:09;;;;;;;8.00;4.95;;;24.10;32.50;;;;;;5024069;28;20479;-50
2022/01/27 06:56:35;;;;;;;9.77;5.43;;;24.20;32.40;;;;;;5024192;28;20025;-48
2022/01/27 06:59:01;;;;;;;10.23;4.90;;;24.20;32.30;;;;;;5024172;28;20026;-48
2022/01/27 07:01:26;;;;;;;8.35;4.80;;;24.30;32.30;;;;;;5023631;28;20025;-49
2022/01/27 07:03:52;;;;;;;7.50;4.25;;;24.30;32.20;;;;;;5023835;28;20036;-49
2022/01/27 07:06:18;;;;;;;7.43;4.80;;;24.30;32.10;;;;;;5022254;28;20500;-49
2022/01/27 07:08:44;;;;;;;6.50;4.68;;;24.40;32.00;;;;;;5022946;28;20033;-49
2022/01/27 07:11:09;;;;;;;7.00;4.57;;;24.40;31.90;;;;;;5022623;28;20072;-48
2022/01/27 07:13:40;;;;;;;8.23;4.63;;;24.50;31.80;;;;;;5022202;28;20034;-50
2022/01/27 07:16:09;;;;;;;7.80;4.07;;;24.50;31.80;;;;;;5021066;28;20481;-47
2022/01/27 07:18:36;;;;;;;6.70;4.22;;;24.60;31.70;;;;;;5022764;28;20028;-50
2022/01/27 07:21:03;;;;;;;8.05;4.30;;;24.60;31.40;;;;;;5023281;28;20088;-50
2022/01/27 07:23:29;;;;;;;6.15;4.22;;;24.60;31.40;;;;;;5025974;28;20112;-50
2022/01/27 07:25:55;;;;;;;5.80;4.20;;;24.70;31.30;;;;;;5026257;28;20124;-48
2022/01/27 07:28:21;;;;;;;6.75;4.15;;;24.70;31.40;;;;;;5025896;28;20026;-48
2022/01/27 07:30:47;;;;;;;7.65;4.40;;;24.80;31.50;;;;;;5025958;28;20039;-49
2022/01/27 07:33:12;;;;;;;7.30;4.85;;;24.80;31.60;;;;;;5026512;28;20030;-50
2022/01/27 07:35:38;;;;;;;6.25;4.45;;;24.80;31.50;;;;;;5026903;28;20036;-50
2022/01/27 07:38:07;;;;;;;9.43;4.88;;;24.90;31.80;;;;;;5027444;28;20079;-50
2022/01/27 07:40:34;;;;;;;6.95;4.55;;;24.90;31.60;;;;;;5026083;28;20025;-49
2022/01/27 07:42:59;;;;;;;8.00;4.95;;;24.90;31.40;;;;;;5027450;28;20033;-49
2022/01/27 07:45:25;;;;;;;6.47;4.10;;;25.00;32.00;;;;;;5027578;28;20026;-48
2022/01/27 07:47:51;;;;;;;5.85;4.10;;;25.00;31.30;;;;;;5026947;28;20036;-48
2022/01/27 07:50:17;;;;;;;6.28;4.15;;;25.00;31.20;;;;;;5026972;28;20037;-50
2022/01/27 07:52:42;;;;;;;6.43;4.43;;;25.00;31.10;;;;;;5026751;28;20572;-49
2022/01/27 07:55:12;;;;;;;5.28;3.75;;;25.00;31.00;;;;;;5027609;28;20040;-49
2022/01/27 07:57:38;;;;;;;5.03;3.63;;;25.10;31.00;;;;;;5026923;28;20110;-50
2022/01/27 08:00:05;;;;;;;5.55;3.40;;;25.10;30.90;;;;;;5027158;28;20025;-47
2022/01/27 08:02:31;;;;;;;5.60;3.80;;;25.10;30.90;;;;;;5026671;28;20027;-48
2022/01/27 08:04:57;;;;;;;5.53;3.70;;;25.10;30.80;;;;;;5026143;28;20210;-49
2022/01/27 08:07:22;;;;;;;6.07;4.13;;;25.10;30.70;;;;;;5026837;28;20156;-49
2022/01/27 08:09:48;;;;;;;5.88;3.70;;;25.10;30.70;;;;;;5026506;28;20212;-48
2022/01/27 08:12:14;;;;;;;5.40;3.53;;;25.10;30.60;;;;;;5026022;28;20030;-46
2022/01/27 08:14:41;;;;;;;5.45;4.07;;;25.10;30.70;;;;;;5026466;28;20018;-49
2022/01/27 08:17:07;;;;;;;5.82;4.00;;;25.20;30.60;;;;;;5026959;28;20030;-49
2022/01/27 08:19:33;;;;;;;5.78;3.95;;;25.20;30.50;;;;;;5025125;28;20034;-49
2022/01/27 08:21:59;;;;;;;5.65;3.60;;;25.20;30.50;;;;;;5026370;28;20061;-48
2022/01/27 08:24:24;;;;;;;6.57;4.78;;;25.20;30.40;;;;;;5026529;28;20088;-49
2022/01/27 08:26:56;;;;;;;6.00;3.55;;;25.10;30.30;;;;;;5026988;28;20032;-49
2022/01/27 08:29:28;;;;;;;7.00;3.70;;;25.10;30.30;;;;;;5026558;28;20112;-49
2022/01/27 08:31:58;;;;;;;6.68;4.10;;;25.20;30.30;;;;;;5025165;28;20033;-48
2022/01/27 08:34:34;;;;;;;6.47;3.95;;;25.20;30.30;;;;;;5025665;28;20022;-49
2022/01/27 08:37:11;;;;;;;6.55;3.90;;;25.20;30.20;;;;;;5025864;28;20387;-49
2022/01/27 08:39:37;;;;;;;6.53;4.10;;;25.20;30.20;;;;;;5026225;28;20029;-49
2022/01/27 08:42:05;;;;;;;6.13;3.75;;;25.20;30.20;;;;;;5026199;28;20041;-49
2022/01/27 08:44:31;;;;;;;7.35;4.20;;;25.20;30.10;;;;;;5026344;28;20109;-49
2022/01/27 08:46:56;;;;;;;6.15;3.92;;;25.20;30.10;;;;;;5026669;28;20108;-49
2022/01/27 08:49:25;;;;;;;5.50;3.72;;;25.30;30.10;;;;;;5026552;28;20610;-49
2022/01/27 08:51:51;;;;;;;5.20;3.63;;;25.30;30.10;;;;;;5025176;28;20061;-49
2022/01/27 08:54:16;;;;;;;5.80;3.75;;;25.30;30.10;;;;;;5026082;28;20076;-49
2022/01/27 08:56:42;;;;;;;6.15;3.40;;;25.30;30.10;;;;;;5025961;28;20038;-49
2022/01/27 08:59:08;;;;;;;5.80;3.67;;;25.30;30.10;;;;;;5026466;28;20086;-48
2022/01/27 09:01:34;;;;;;;5.28;3.60;;;25.30;30.00;;;;;;5025896;28;20060;-49
2022/01/27 09:04:00;;;;;;;5.18;3.35;;;25.30;30.00;;;;;;5026088;28;20064;-47
2022/01/27 09:06:28;;;;;;;5.70;4.05;;;25.30;30.00;;;;;;5024788;28;20108;-49
2022/01/27 09:08:55;;;;;;;5.85;3.83;;;25.40;29.90;;;;;;5026217;28;20025;-48
2022/01/27 09:11:21;;;;;;;5.25;3.45;;;25.40;29.90;;;;;;5025735;28;20041;-48
2022/01/27 09:13:47;;;;;;;4.85;3.47;;;25.30;29.80;;;;;;5024866;28;20120;-48
2022/01/27 09:16:13;;;;;;;5.47;3.78;;;25.40;29.70;;;;;;5026084;28;20112;-50
2022/01/27 09:18:39;;;;;;;6.22;4.00;;;25.40;29.70;;;;;;5025870;28;20152;-50
2022/01/27 09:21:11;;;;;;;5.93;3.85;;;25.40;29.70;;;;;;5025335;28;20045;-49
2022/01/27 09:23:37;;;;;;;;;;;25.40;29.70;;;;;;5025834;28;20041;-49
2022/01/27 09:26:07;;;;;;;5.30;2.90;;;25.40;29.70;;;;;;5025767;28;19905;-49
2022/01/27 09:28:33;;;;;;;5.57;3.95;;;25.40;29.60;;;;;;5025532;28;20033;-48
2022/01/27 09:30:59;;;;;;;5.50;3.85;;;25.40;29.50;;;;;;5025315;28;20156;-49
2022/01/27 09:33:25;;;;;;;5.47;3.95;;;25.40;29.50;;;;;;5025016;28;20033;-50
2022/01/27 09:35:51;;;;;;;5.22;3.53;;;25.40;29.40;;;;;;5025073;28;20083;-48
2022/01/27 09:38:16;;;;;;;7.13;3.90;;;25.40;30.00;;;;;;5023845;28;20044;-47
2022/01/27 09:40:43;;;;;;;4.93;3.42;;;25.50;29.30;;;;;;5025195;28;20041;-47
2022/01/27 09:43:09;;;;;;;5.40;3.70;;;25.50;29.30;;;;;;5024772;28;20030;-48
2022/01/27 09:45:39;;;;;;;5.88;4.18;;;25.50;29.20;;;;;;5023660;28;20026;-49
2022/01/27 09:48:16;;;;;;;5.50;3.95;;;25.50;29.20;;;;;;5024097;28;20029;-49
2022/01/27 09:53:19;;;;;;;5.57;4.05;;;25.50;29.10;;;;;;5025041;28;20037;-49
2022/01/27 09:55:45;;;;;;;6.05;4.43;;;25.50;29.00;;;;;;5025261;28;20718;-48
2022/01/27 09:58:11;;;;;;;4.93;3.72;;;25.40;29.10;;;;;;5039838;28;20112;-48
2022/01/27 10:00:37;;;;;;;4.93;3.33;;;25.50;29.10;;;;;;5024463;28;20505;-49
2022/01/27 10:03:13;;;;;;;6.00;3.75;;;25.50;29.10;;;;;;5024407;28;20099;-49
2022/01/27 10:05:40;;;;;;;5.10;3.40;;;25.50;29.10;;;;;;5024210;28;20116;-49
2022/01/27 10:08:11;;;;;;;5.53;3.97;;;25.50;29.10;;;;;;5023567;28;20036;-49
2022/01/27 10:10:42;;;;;;;4.85;3.40;;;25.50;29.10;;;;;;5022922;28;20186;-48
2022/01/27 10:13:11;;;;;;;4.18;2.83;;;25.50;29.00;;;;;;5022840;28;20075;-50
2022/01/27 10:15:45;;;;;;;5.95;3.70;;;25.50;29.00;;;;;;5024368;28;20026;-49
2022/01/27 10:18:16;;;;;;;5.10;3.10;;;25.50;29.00;;;;;;5025158;28;20107;-48
2022/01/27 10:21:03;;;;;;;6.13;4.32;;;25.50;29.00;;;;;;5024056;28;20278;-49
2022/01/27 10:23:33;;;;;;;5.45;3.47;;;25.50;29.00;;;;;;5004817;28;20034;-49
2022/01/27 10:26:15;;;;;;;5.85;3.85;;;25.50;28.90;;;;;;5004653;28;20129;-49
2022/01/27 10:31:23;;;;;;;6.03;4.28;;;25.50;28.80;;;;;;5023413;28;20026;-49
2022/01/27 10:34:01;;;;;;;6.00;3.70;;;25.50;28.80;;;;;;5023337;28;20509;-49
2022/01/27 10:36:27;;;;;;;6.13;4.18;;;25.50;28.80;;;;;;5024205;28;20033;-49
2022/01/27 10:39:01;;;;;;;5.82;4.13;;;25.50;28.80;;;;;;5022874;28;20032;-47
2022/01/27 10:41:28;;;;;;;5.65;3.65;;;25.50;28.70;;;;;;5022507;28;20506;-47
2022/01/27 10:44:16;;;;;;;5.85;3.90;;;25.50;28.70;;;;;;5022090;28;20047;-48
2022/01/27 10:47:06;;;;;;;6.07;4.20;;;25.50;28.80;;;;;;5023734;28;20041;-49
2022/01/27 10:49:37;;;;;;;6.10;3.85;;;25.50;28.70;;;;;;5023854;28;20610;-49
2022/01/27 10:52:04;;;;;;;8.00;3.88;;;25.50;28.60;;;;;;5021643;28;20100;-49
2022/01/27 10:57:05;;;;;;;6.88;4.00;;;25.50;28.70;;;;;;5026673;28;20025;-48
2022/01/27 10:59:33;;;;;;;5.10;3.35;;;25.50;28.60;;;;;;5027627;28;20083;-50
2022/01/27 11:02:03;;;;;;;6.80;3.42;;;25.50;28.50;;;;;;5028073;28;20033;-48
2022/01/27 11:04:38;;;;;;;5.93;3.80;;;25.50;28.50;;;;;;5028491;28;20509;-49
2022/01/27 11:07:08;;;;;;;5.75;3.65;;;25.50;28.50;;;;;;5027840;28;20042;-49
2022/01/27 11:09:37;;;;;;;5.93;3.50;;;25.50;28.50;;;;;;5026861;28;20104;-49
2022/01/27 11:12:08;;;;;;;6.45;3.92;;;25.50;28.40;;;;;;5025781;28;20040;-47
2022/01/27 11:14:35;;;;;;;6.13;3.97;;;25.50;28.50;;;;;;5027225;28;20080;-49
2022/01/27 11:17:02;;;;;;;6.38;4.00;;;25.50;28.30;;;;;;5010283;28;20380;-48
2022/01/27 11:22:06;;;;;;;6.00;3.35;;;25.50;28.50;;;;;;5026519;28;20076;-48
2022/01/27 11:25:05;;;;;;;5.38;3.67;;;25.50;28.40;;;;;;5026309;28;20029;-49
2022/01/27 11:27:25;;;;;;;6.55;3.80;;;25.50;28.40;;;;;;5027432;28;20028;-50
2022/01/27 11:30:08;;;;;;;5.78;3.78;;;25.50;28.40;;;;;;5027925;28;20151;-49
2022/01/27 11:32:51;;;;;;;5.32;3.75;;;25.60;28.40;;;;;;5026953;28;20037;-48
2022/01/27 11:35:22;;;;;;;4.93;3.00;;;25.60;28.40;;;;;;5028178;28;20017;-48
2022/01/27 11:37:53;;;;;;;5.45;3.88;;;25.60;28.40;;;;;;5027125;28;20033;-49
2022/01/27 11:40:21;;;;;;;5.03;3.38;;;25.60;28.30;;;;;;5027795;28;20065;-49
2022/01/27 11:42:56;;;;;;;5.07;3.45;;;25.60;28.20;;;;;;5024891;28;20033;-49
2022/01/27 11:45:29;;;;;;;5.47;3.42;;;25.60;28.30;;;;;;5027436;28;20069;-50
2022/01/27 11:48:06;;;;;;;5.57;3.60;;;25.60;28.30;;;;;;5027305;28;20056;-49
2022/01/27 11:50:54;;;;;;;5.25;3.65;;;25.60;29.00;;;;;;5027122;28;20505;-49
2022/01/27 11:53:32;;;;;;;5.00;3.20;;;25.60;28.30;;;;;;5027139;28;20775;-49
2022/01/27 11:56:05;;;;;;;6.43;3.60;;;25.60;28.30;;;;;;5026731;28;20025;-48
2022/01/27 11:58:43;;;;;;;5.63;3.50;;;25.60;28.30;;;;;;5026989;28;20485;-50
2022/01/27 12:01:17;;;;;;;5.85;3.80;;;25.60;28.20;;;;;;5007491;28;20088;-48
2022/01/27 12:04:06;;;;;;;5.30;3.42;;;25.60;28.20;;;;;;5011847;28;20037;-50
2022/01/27 12:06:32;;;;;;;4.68;2.80;;;25.60;28.30;;;;;;5023054;28;20064;-47
2022/01/27 12:09:19;;;;;;;4.47;2.67;;;25.60;28.30;;;;;;5026814;28;20060;-48
2022/01/27 12:11:57;;;;;;;6.43;3.33;;;25.60;28.30;;;;;;5026182;28;20095;-50
2022/01/27 12:14:34;;;;;;;4.50;3.05;;;25.60;28.30;;;;;;5026147;28;20029;-48
2022/01/27 12:17:09;;;;;;;4.15;2.67;;;25.60;28.30;;;;;;5026771;28;20432;-49
2022/01/27 12:20:10;;;;;;;4.75;2.83;;;25.60;28.30;;;;;;5026203;28;20030;-48
2022/01/27 12:22:49;;;;;;;4.63;2.65;;;25.60;28.40;;;;;;5025777;28;20029;-49
2022/01/27 12:25:15;;;;;;;4.22;2.67;;;25.60;28.30;;;;;;5026853;28;20022;-50
2022/01/27 12:27:57;;;;;;;4.60;2.90;;;25.60;28.30;;;;;;5026501;28;20063;-49
2022/01/27 12:30:23;;;;;;;4.65;2.63;;;25.60;28.30;;;;;;5025852;28;20290;-50
2022/01/27 12:32:54;;;;;;;3.83;2.35;;;25.70;28.40;;;;;;5026240;28;20500;-48
2022/01/27 12:35:20;;;;;;;4.35;2.70;;;25.70;28.30;;;;;;5026245;28;20529;-49
2022/01/27 12:37:48;;;;;;;5.68;3.10;;;25.70;28.30;;;;;;5025612;28;20030;-49
2022/01/27 12:40:30;;;;;;;4.43;2.70;;;25.70;28.20;;;;;;5025798;28;20026;-50
2022/01/27 12:43:03;;;;;;;4.63;3.08;;;25.70;28.20;;;;;;5025742;28;20104;-50
2022/01/27 12:45:35;;;;;;;4.28;2.55;;;25.70;28.30;;;;;;5024817;28;20520;-49
2022/01/27 12:48:08;;;;;;;4.35;2.50;;;25.70;28.40;;;;;;5025092;28;20033;-48
2022/01/27 12:50:35;;;;;;;;;;;25.70;28.30;;;;;;5026721;28;20378;-50
2022/01/27 12:53:07;;;;;;;4.72;2.30;;;25.70;28.40;;;;;;5025772;28;19974;-49
2022/01/27 12:55:35;;;;;;;4.80;2.53;;;25.70;28.30;;;;;;5026033;28;20494;-49
2022/01/27 12:58:06;;;;;;;5.57;2.90;;;25.80;28.20;;;;;;5025874;28;20032;-49
2022/01/27 13:00:52;;;;;;;4.97;2.60;;;25.70;28.10;;;;;;5024461;28;20561;-49
2022/01/27 13:03:21;;;;;;;4.28;2.63;;;25.80;28.20;;;;;;5023879;28;20064;-50
2022/01/27 13:05:49;;;;;;;4.13;2.22;;;25.80;28.20;;;;;;5025560;28;20164;-49
2022/01/27 13:08:31;;;;;;;4.32;2.28;;;25.80;28.20;;;;;;5024312;28;20033;-49
2022/01/27 13:11:02;;;;;;;4.25;2.28;;;25.80;28.20;;;;;;5025162;28;20452;-49
2022/01/27 13:13:34;;;;;;;5.82;2.90;;;25.80;28.10;;;;;;5024677;28;20041;-49
2022/01/27 13:16:04;;;;;;;5.95;3.30;;;25.80;28.10;;;;;;5025305;28;20488;-49
2022/01/27 13:18:42;;;;;;;5.10;3.28;;;25.80;28.00;;;;;;5005891;28;20026;-50
2022/01/27 13:21:25;;;;;;;5.15;3.08;;;25.80;28.00;;;;;;5025046;28;20040;-49
2022/01/27 13:24:14;;;;;;;5.00;3.08;;;25.80;28.00;;;;;;5023221;28;20037;-48
2022/01/27 13:26:44;;;;;;;5.25;2.70;;;25.80;28.10;;;;;;5025197;28;20108;-49
2022/01/27 13:29:12;;;;;;;5.55;3.47;;;25.90;28.00;;;;;;5007371;28;20057;-49
2022/01/27 13:31:38;;;;;;;5.45;2.70;;;25.90;27.90;;;;;;5025038;28;20029;-50
2022/01/27 13:34:04;;;;;;;5.70;2.85;;;25.80;27.80;;;;;;5025116;28;20060;-49
2022/01/27 13:36:37;;;;;;;4.20;2.78;;;25.90;27.70;;;;;;5025682;28;20034;-49
2022/01/27 13:39:35;;;;;;;4.82;2.40;;;25.90;27.70;;;;;;5024474;28;20048;-49
2022/01/27 13:42:08;;;;;;;6.10;3.25;;;25.90;27.70;;;;;;5024459;28;20026;-48
2022/01/27 13:44:33;;;;;;;4.15;2.80;;;25.90;27.60;;;;;;5025201;28;20545;-49
2022/01/27 13:47:04;;;;;;;4.97;3.17;;;25.90;27.60;;;;;;5024498;28;20453;-49